Time;durP1;ratioP1;P1;durP2;ratioP2;P2;SDS_P1;SDS_P2;PMS_P1;PMS_P2;Temp;Humidity;BMP_temperature;BMP_pressure;BME280_temperature;BME280_humidity;BME280_pressure;Samples;Min_cycle;Max_cycle;Signal;HPM_P1;HPM_P2
2021/09/05 00:00:09;;;;;;;;;;;;;;;14.65;77.64;99827.75;5073408;28;19924;-72
2021/09/05 00:02:38;;;;;;;;;;;;;;;14.56;77.75;99830.47;5073488;28;19971;-71
2021/09/05 00:05:08;;;;;;;;;;;;;;;14.54;77.91;99829.63;5073361;28;19928;-71
2021/09/05 00:07:38;;;;;;;;;;;;;;;14.58;78.31;99839.00;5073533;28;19982;-71
2021/09/05 00:10:09;;;;;;;;;;;;;;;14.58;78.00;99839.00;5073424;28;20320;-71
2021/09/05 00:12:38;;;;;;;;;;;;;;;14.61;78.21;99835.53;5073437;28;19982;-72
2021/09/05 00:15:08;;;;;;;;;;;;;;;14.60;78.26;99842.38;5074340;28;20350;-71
2021/09/05 00:17:38;;;;;;;;;;;;;;;14.65;78.40;99837.19;5073717;28;20571;-72
2021/09/05 00:20:07;;;;;;;;;;;;;;;14.64;78.21;99841.47;5073350;28;19924;-71
2021/09/05 00:22:36;;;;;;;;;;;;;;;14.54;78.03;99847.59;5073269;28;19967;-71
2021/09/05 00:25:06;;;;;;;;;;;;;;;14.50;78.16;99843.38;5076842;28;19930;-72
2021/09/05 00:27:37;;;;;;;;;;;;;;;14.50;77.95;99845.94;5077549;28;19925;-71
2021/09/05 00:30:07;;;;;;;;;;;;;;;14.52;78.48;99845.91;5092593;28;20290;-73
2021/09/05 00:32:37;;;;;;;;;;;;;;;14.56;78.29;99843.31;5076910;28;19925;-74
2021/09/05 00:35:06;;;;;;;;;;;;;;;14.49;78.23;99841.66;5058975;28;19963;-74
2021/09/05 00:37:38;;;;;;;;;;;;;;;14.51;78.24;99842.53;5075632;28;20367;-74
2021/09/05 00:40:07;;;;;;;;;;;;;;;14.54;78.10;99850.16;5076576;28;19928;-71
2021/09/05 00:42:37;;;;;;;;;;;;;;;14.53;77.82;99845.06;5076597;28;19931;-71
2021/09/05 00:45:06;;;;;;;;;;;;;;;14.44;78.17;99846.06;5058825;28;20382;-71
2021/09/05 00:47:37;;;;;;;;;;;;;;;14.46;77.93;99852.00;5058992;28;19947;-71
2021/09/05 00:50:06;;;;;;;;;;;;;;;14.43;78.28;99852.03;5075326;28;19960;-71
2021/09/05 00:52:34;;;;;;;;;;;;;;;14.37;78.30;99857.25;5076493;28;20412;-71
2021/09/05 00:55:03;;;;;;;;;;;;;;;14.42;78.36;99860.59;5076214;28;19924;-72
2021/09/05 00:57:33;;;;;;;;;;;;;;;14.51;78.14;99855.38;5075320;28;19924;-71
2021/09/05 01:00:04;;;;;;;;;;;;;;;14.62;77.51;99858.63;5076639;28;20377;-71
2021/09/05 01:02:37;;;;;;;;;;;;;;;14.57;77.33;99855.28;5059013;28;19950;-71
2021/09/05 01:05:07;;;;;;;;;;;;;;;14.47;77.82;99856.25;5076657;28;19925;-71
2021/09/05 01:07:37;;;;;;;;;;;;;;;14.39;77.66;99865.81;5092272;28;19924;-71
2021/09/05 01:10:06;;;;;;;;;;;;;;;14.36;77.64;99870.97;5075989;28;19925;-71
2021/09/05 01:12:37;;;;;;;;;;;;;;;14.32;77.84;99869.31;5076188;28;19936;-72
2021/09/05 01:15:08;;;;;;;;;;;;;;;14.28;77.94;99870.19;5058193;28;20386;-73
2021/09/05 01:17:38;;;;;;;;;;;;;;;14.25;77.96;99872.81;5076413;28;20290;-72
2021/09/05 01:20:18;;;;;;;;;;;;;;;14.22;77.94;99877.97;5076426;28;19924;-73
2021/09/05 01:22:57;;;;;;;;;;;;;;;14.24;77.83;99880.50;5076232;28;20026;-73
2021/09/05 01:25:47;;;;;;;;;;;;;;;14.26;78.00;99874.50;5064671;28;19924;-73
2021/09/05 01:28:28;;;;;;;;;;;;;;;14.25;78.28;99883.06;5076241;28;19924;-73
2021/09/05 01:31:07;;;;;;;;;;;;;;;14.28;78.00;99887.28;5075763;28;19924;-73
2021/09/05 01:33:47;;;;;;;;;;;;;;;14.24;78.25;99886.50;5075783;28;19924;-73
2021/09/05 01:36:27;;;;;;;;;;;;;;;14.26;78.19;99889.88;5075081;28;19925;-73
2021/09/05 01:39:07;;;;;;;;;;;;;;;14.21;77.90;99890.81;5075661;28;19931;-73
2021/09/05 01:41:59;;;;;;;;;;;;;;;14.13;78.32;99888.34;5046700;28;19978;-73
2021/09/05 01:44:32;;;;;;;;;;;;;;;14.18;78.35;99886.56;5075487;28;20393;-73
2021/09/05 01:47:07;;;;;;;;;;;;;;;14.21;78.09;99891.66;5075589;28;20016;-73
2021/09/05 01:49:47;;;;;;;;;;;;;;;14.28;78.41;99892.44;5076095;28;19924;-73
2021/09/05 01:52:36;;;;;;;;;;;;;;;14.36;78.54;99890.66;5064030;28;19931;-73
2021/09/05 01:55:16;;;;;;;;;;;;;;;14.39;78.22;99896.63;5075092;28;19924;-73
2021/09/05 01:58:05;;;;;;;;;;;;;;;14.34;78.19;99887.25;5063978;28;19951;-73
2021/09/05 02:00:46;;;;;;;;;;;;;;;14.36;77.97;99888.09;5075318;28;19978;-73
2021/09/05 02:03:34;;;;;;;;;;;;;;;14.37;78.22;99887.25;5075102;28;19924;-72
2021/09/05 02:06:18;;;;;;;;;;;;;;;14.38;78.59;99891.47;5075396;28;20374;-73
2021/09/05 02:08:57;;;;;;;;;;;;;;;14.31;78.59;99893.28;5075013;28;20009;-73
2021/09/05 02:11:37;;;;;;;;;;;;;;;14.23;78.76;99896.81;5074967;28;19924;-73
2021/09/05 02:14:26;;;;;;;;;;;;;;;14.20;78.57;99896.81;5064228;28;19973;-73
2021/09/05 02:17:06;;;;;;;;;;;;;;;14.22;78.96;99898.50;5075123;28;19930;-73
2021/09/05 02:19:59;;;;;;;;;;;;;;;14.19;78.93;99895.97;5054036;28;19924;-73
2021/09/05 02:22:53;;;;;;;;;;;;;;;14.20;78.60;99902.81;5057103;28;20275;-72
2021/09/05 02:25:33;;;;;;;;;;;;;;;14.28;79.00;99892.44;5074754;28;20326;-73
2021/09/05 02:28:22;;;;;;;;;;;;;;;14.31;78.55;99903.56;5043405;28;19925;-73
2021/09/05 02:31:10;;;;;;;;;;;;;;;14.17;78.31;99904.56;5074380;28;19924;-73
2021/09/05 02:33:52;;;;;;;;;;;;;;;14.08;77.94;99908.09;5074609;28;19932;-73
2021/09/05 02:36:48;;;;;;;;;;;;;;;13.94;77.84;99902.25;5058643;28;19925;-73
2021/09/05 02:39:37;;;;;;;;;;;;;;;13.83;77.95;99898.94;5073368;28;20348;-73
2021/09/05 02:42:05;;;;;;;;;;;;;;;13.92;78.20;99901.41;5074315;28;19929;-74
2021/09/05 02:44:45;;;;;;;;;;;;;;;13.87;77.80;99908.28;5074318;28;19928;-72
2021/09/05 02:47:24;;;;;;;;;;;;;;;13.85;78.15;99912.59;5073507;28;20300;-73
2021/09/05 02:50:18;;;;;;;;;;;;;;;13.92;77.87;99915.09;5066022;28;19925;-73
2021/09/05 02:52:58;;;;;;;;;;;;;;;13.96;77.62;99910.78;5074282;28;19947;-71
2021/09/05 02:55:38;;;;;;;;;;;;;;;13.93;77.42;99910.81;5073965;28;19931;-71
2021/09/05 02:58:17;;;;;;;;;;;;;;;13.86;77.31;99915.16;5074252;28;20469;-71
2021/09/05 03:01:03;;;;;;;;;;;;;;;13.74;77.60;99924.69;5056427;28;19931;-71
2021/09/05 03:03:42;;;;;;;;;;;;;;;13.65;77.63;99917.09;5073979;28;20304;-71
2021/09/05 03:06:29;;;;;;;;;;;;;;;13.53;77.70;99920.63;5074488;28;20015;-71
2021/09/05 03:09:09;;;;;;;;;;;;;;;13.43;78.28;99921.56;5074076;28;19950;-71
2021/09/05 03:12:01;;;;;;;;;;;;;;;13.34;78.16;99927.59;5063624;28;20007;-71
2021/09/05 03:14:40;;;;;;;;;;;;;;;13.27;78.49;99927.66;5056053;28;19955;-71
2021/09/05 03:17:35;;;;;;;;;;;;;;;13.22;78.79;99920.00;5057760;28;19978;-71
2021/09/05 03:20:14;;;;;;;;;;;;;;;13.20;78.94;99931.97;5073948;28;20326;-71
2021/09/05 03:23:05;;;;;;;;;;;;;;;13.15;79.08;99933.72;5073805;28;19924;-71
2021/09/05 03:26:00;;;;;;;;;;;;;;;13.11;79.16;99934.63;5071814;28;19925;-71
2021/09/05 03:28:48;;;;;;;;;;;;;;;13.05;79.37;99936.34;5073878;28;19928;-71
2021/09/05 03:31:28;;;;;;;;;;;;;;;12.97;79.76;99933.81;5073885;28;19932;-71
2021/09/05 03:34:09;;;;;;;;;;;;;;;12.95;79.69;99943.25;5073794;28;19924;-71
2021/09/05 03:36:48;;;;;;;;;;;;;;;12.95;79.81;99950.94;5074201;28;20015;-71
2021/09/05 03:39:29;;;;;;;;;;;;;;;13.00;80.10;99946.63;5074518;28;19924;-71
2021/09/05 03:42:23;;;;;;;;;;;;;;;13.09;80.16;99943.19;5075470;28;20007;-71
2021/09/05 03:45:15;;;;;;;;;;;;;;;13.22;79.94;99945.63;5072346;28;19925;-71
2021/09/05 03:47:54;;;;;;;;;;;;;;;13.28;80.10;99944.75;5073777;28;19951;-71
2021/09/05 03:50:42;;;;;;;;;;;;;;;13.29;79.93;99944.72;5072575;28;19936;-71
2021/09/05 03:53:11;;;;;;;;;;;;;;;13.38;79.80;99947.25;5089896;28;19956;-71
2021/09/05 03:55:43;;;;;;;;;;;;;;;13.53;79.66;99950.53;5073359;28;19924;-71
2021/09/05 03:58:13;;;;;;;;;;;;;;;13.57;79.12;99942.81;5056768;28;19929;-71
2021/09/05 04:00:42;;;;;;;;;;;;;;;13.62;79.02;99943.63;5059975;28;19929;-71
2021/09/05 04:03:13;;;;;;;;;;;;;;;13.69;78.39;99952.09;5059678;28;20370;-71
2021/09/05 04:05:43;;;;;;;;;;;;;;;13.67;78.11;99953.84;5077470;28;19929;-71
2021/09/05 04:08:16;;;;;;;;;;;;;;;13.69;77.87;99952.97;5077660;28;19924;-71
2021/09/05 04:10:46;;;;;;;;;;;;;;;13.69;77.92;99952.97;5077334;28;19924;-71
2021/09/05 04:13:15;;;;;;;;;;;;;;;13.67;77.29;99959.81;5077271;28;19970;-71
2021/09/05 04:15:43;;;;;;;;;;;;;;;13.68;77.24;99955.53;5077253;28;19931;-71
2021/09/05 04:18:12;;;;;;;;;;;;;;;13.74;77.19;99960.59;5077077;28;19932;-71
2021/09/05 04:20:41;;;;;;;;;;;;;;;13.68;77.06;99958.09;5077112;28;19925;-71
2021/09/05 04:23:10;;;;;;;;;;;;;;;13.69;77.03;99962.38;5077050;28;20003;-71
2021/09/05 04:25:40;;;;;;;;;;;;;;;13.69;76.64;99958.09;5076883;28;20386;-71
2021/09/05 04:28:10;;;;;;;;;;;;;;;13.70;76.45;99964.91;5077020;28;20018;-71
2021/09/05 04:30:39;;;;;;;;;;;;;;;13.72;76.75;99957.22;5076990;28;20443;-71
2021/09/05 04:33:08;;;;;;;;;;;;;;;13.67;76.21;99962.38;5076864;28;20020;-71
2021/09/05 04:35:37;;;;;;;;;;;;;;;13.64;76.35;99969.25;5076747;28;19928;-71
2021/09/05 04:38:05;;;;;;;;;;;;;;;13.67;76.27;99979.47;5076846;28;20457;-71
2021/09/05 04:40:34;;;;;;;;;;;;;;;13.64;76.27;99989.75;5077089;28;19967;-71
2021/09/05 04:43:03;;;;;;;;;;;;;;;13.69;76.61;99982.88;5076720;28;19963;-71
2021/09/05 04:45:33;;;;;;;;;;;;;;;13.70;76.03;99987.16;5076427;28;19924;-71
2021/09/05 04:48:02;;;;;;;;;;;;;;;13.69;76.36;99988.00;5076694;28;20409;-71
2021/09/05 04:50:31;;;;;;;;;;;;;;;13.72;76.43;99985.44;5076877;28;19963;-71
2021/09/05 04:53:00;;;;;;;;;;;;;;;13.77;76.31;99981.13;5076486;28;20381;-71
2021/09/05 04:55:28;;;;;;;;;;;;;;;13.81;76.35;99983.63;5076676;28;19924;-71
2021/09/05 04:57:57;;;;;;;;;;;;;;;13.87;76.38;99987.84;5076425;28;19924;-71
2021/09/05 05:00:26;;;;;;;;;;;;;;;13.82;76.41;99990.44;5076681;28;20015;-71
2021/09/05 05:02:57;;;;;;;;;;;;;;;13.92;76.54;99991.22;5076347;28;20038;-71
2021/09/05 05:05:26;;;;;;;;;;;;;;;13.99;76.10;99998.00;5076201;28;19924;-71
2021/09/05 05:07:55;;;;;;;;;;;;;;;14.09;76.37;100000.47;5076524;28;19960;-71
2021/09/05 05:10:24;;;;;;;;;;;;;;;14.15;75.87;100008.97;5075130;28;20096;-71
2021/09/05 05:12:53;;;;;;;;;;;;;;;14.19;76.15;100003.78;5076148;28;20020;-71
2021/09/05 05:15:21;;;;;;;;;;;;;;;14.25;76.07;100011.44;5076121;28;19924;-71
2021/09/05 05:17:50;;;;;;;;;;;;;;;14.29;76.03;100010.53;5076227;28;19971;-71
2021/09/05 05:20:20;;;;;;;;;;;;;;;14.34;75.78;100013.94;5076022;28;19932;-71
2021/09/05 05:22:49;;;;;;;;;;;;;;;14.34;75.82;100019.09;5091724;28;19924;-71
2021/09/05 05:25:18;;;;;;;;;;;;;;;14.40;76.24;100021.56;5075859;28;19978;-71
2021/09/05 05:27:47;;;;;;;;;;;;;;;14.52;76.04;100026.56;5076090;28;19924;-71
2021/09/05 05:30:15;;;;;;;;;;;;;;;14.63;75.79;100023.91;5075908;28;19924;-72
2021/09/05 05:32:45;;;;;;;;;;;;;;;14.74;75.93;100028.03;5076309;28;19924;-72
2021/09/05 05:35:14;;;;;;;;;;;;;;;14.88;75.73;100027.00;5076110;28;20386;-72
2021/09/05 05:37:44;;;;;;;;;;;;;;;14.98;75.41;100026.00;5075525;28;19928;-71
2021/09/05 05:40:13;;;;;;;;;;;;;;;15.11;75.28;100027.56;5075693;28;19925;-71
2021/09/05 05:42:42;;;;;;;;;;;;;;;15.15;75.81;100039.50;5075842;28;19960;-71
2021/09/05 05:45:11;;;;;;;;;;;;;;;15.28;75.65;100035.91;5075416;28;19924;-70
2021/09/05 05:47:40;;;;;;;;;;;;;;;15.42;75.22;100039.13;5075441;28;20098;-72
2021/09/05 05:50:09;;;;;;;;;;;;;;;15.55;75.06;100040.66;5075366;28;19929;-71
2021/09/05 05:52:38;;;;;;;;;;;;;;;15.67;75.51;100044.78;5075626;28;20336;-71
2021/09/05 05:55:08;;;;;;;;;;;;;;;15.80;75.50;100047.13;5075321;28;20294;-71
2021/09/05 05:57:37;;;;;;;;;;;;;;;15.92;75.08;100046.94;5075170;28;19978;-72
2021/09/05 06:00:07;;;;;;;;;;;;;;;16.09;75.18;100042.38;5075188;28;20328;-71
2021/09/05 06:02:40;;;;;;;;;;;;;;;16.21;74.83;100043.00;5075277;28;19924;-72
2021/09/05 06:05:10;;;;;;;;;;;;;;;16.34;74.58;100041.94;5075015;28;19932;-71
2021/09/05 06:07:38;;;;;;;;;;;;;;;16.49;74.28;100052.78;5075021;28;19974;-71
2021/09/05 06:10:09;;;;;;;;;;;;;;;16.60;74.09;100043.16;5075054;28;19932;-71
2021/09/05 06:12:37;;;;;;;;;;;;;;;16.75;73.93;100049.72;5074988;28;19971;-72
2021/09/05 06:15:07;;;;;;;;;;;;;;;16.87;73.72;100051.25;5074851;28;19955;-72
2021/09/05 06:17:36;;;;;;;;;;;;;;;16.97;73.53;100058.75;5074781;28;19924;-71
2021/09/05 06:20:06;;;;;;;;;;;;;;;17.14;73.17;100061.81;5075079;28;20404;-71
2021/09/05 06:22:36;;;;;;;;;;;;;;;17.25;72.84;100065.00;5074872;28;20297;-71
2021/09/05 06:25:05;;;;;;;;;;;;;;;17.39;72.70;100067.31;5074851;28;20294;-71
2021/09/05 06:27:35;;;;;;;;;;;;;;;17.53;72.29;100064.44;5074624;28;19931;-71
2021/09/05 06:30:05;;;;;;;;;;;;;;;17.63;71.95;100065.94;5074984;28;20282;-71
2021/09/05 06:32:33;;;;;;;;;;;;;;;17.70;71.29;100062.31;5074782;28;19924;-71
2021/09/05 06:35:03;;;;;;;;;;;;;;;17.76;70.93;100068.19;5074530;28;19924;-72
2021/09/05 06:37:34;;;;;;;;;;;;;;;17.83;70.79;100067.16;5074774;28;20432;-71
2021/09/05 06:40:03;;;;;;;;;;;;;;;17.93;70.61;100072.94;5074751;28;20282;-72
2021/09/05 06:42:32;;;;;;;;;;;;;;;18.03;70.05;100074.41;5074369;28;19925;-71
2021/09/05 06:45:02;;;;;;;;;;;;;;;18.09;69.99;100079.44;5074756;28;19971;-71
2021/09/05 06:47:31;;;;;;;;;;;;;;;18.17;70.11;100085.25;5074265;28;19924;-72
2021/09/05 06:50:00;;;;;;;;;;;;;;;18.30;69.69;100076.31;5056286;28;19924;-72
2021/09/05 06:52:28;;;;;;;;;;;;;;;18.43;69.14;100080.25;5074309;28;19930;-72
2021/09/05 06:54:58;;;;;;;;;;;;;;;18.51;68.91;100075.78;5073948;28;19959;-72
2021/09/05 06:57:27;;;;;;;;;;;;;;;18.61;68.44;100085.00;5074133;28;19924;-71
2021/09/05 06:59:56;;;;;;;;;;;;;;;18.71;68.00;100094.19;5074448;28;19924;-72
2021/09/05 07:02:26;;;;;;;;;;;;;;;18.84;67.88;100099.03;5074086;28;20449;-72
2021/09/05 07:04:55;;;;;;;;;;;;;;;18.95;67.50;100097.00;5074129;28;19971;-71
2021/09/05 07:07:42;;;;;;;;;;;;;;;19.01;66.45;100099.41;5073656;28;20302;-71
2021/09/05 07:10:11;;;;;;;;;;;;;;;19.02;66.49;100101.09;5073883;28;19924;-71
2021/09/05 07:12:42;;;;;;;;;;;;;;;19.04;66.34;100099.31;5073972;28;19924;-71
2021/09/05 07:15:11;;;;;;;;;;;;;;;19.07;66.06;100101.84;5074014;28;19964;-71
2021/09/05 07:17:41;;;;;;;;;;;;;;;19.11;66.05;100098.25;5073880;28;19966;-71
2021/09/05 07:20:11;;;;;;;;;;;;;;;19.14;66.10;100108.53;5073984;28;19925;-72
2021/09/05 07:22:39;;;;;;;;;;;;;;;19.22;66.31;100106.53;5074147;28;20274;-71
2021/09/05 07:25:08;;;;;;;;;;;;;;;19.30;66.48;100109.78;5073789;28;19982;-71
2021/09/05 07:27:37;;;;;;;;;;;;;;;19.31;66.44;100107.16;5074150;28;20300;-72
2021/09/05 07:30:06;;;;;;;;;;;;;;;19.39;66.53;100101.75;5073845;28;19971;-72
2021/09/05 07:32:36;;;;;;;;;;;;;;;19.47;66.40;100102.38;5074294;28;19960;-71
2021/09/05 07:35:07;;;;;;;;;;;;;;;19.53;66.02;100111.72;5077723;28;20397;-72
2021/09/05 07:37:36;;;;;;;;;;;;;;;19.62;65.95;100109.69;5078289;28;19925;-72
2021/09/05 07:40:06;;;;;;;;;;;;;;;19.66;65.59;100124.25;5078203;28;19925;-72
2021/09/05 07:42:35;;;;;;;;;;;;;;;19.66;65.45;100113.88;5077901;28;19932;-71
2021/09/05 07:45:04;;;;;;;;;;;;;;;19.74;65.26;100117.09;5077995;28;20293;-72
2021/09/05 07:47:33;;;;;;;;;;;;;;;19.73;64.71;100120.56;5077654;28;19930;-72
2021/09/05 07:50:02;;;;;;;;;;;;;;;19.83;64.45;100121.97;5077750;28;19959;-72
2021/09/05 07:52:33;;;;;;;;;;;;;;;19.98;64.43;100131.03;5077603;28;19924;-72
2021/09/05 07:55:01;;;;;;;;;;;;;;;20.11;63.90;100126.31;5077358;28;19931;-73
2021/09/05 07:57:30;;;;;;;;;;;;;;;20.23;63.40;100131.13;5077766;28;20277;-71
2021/09/05 07:59:59;;;;;;;;;;;;;;;20.36;62.75;100135.84;5077462;28;19925;-71
2021/09/05 08:02:28;;;;;;;;;;;;;;;20.44;62.17;100135.59;5077324;28;20373;-71
2021/09/05 08:04:57;;;;;;;;;;;;;;;20.58;62.01;100130.78;5077312;28;19924;-71
2021/09/05 08:07:26;;;;;;;;;;;;;;;20.70;61.73;100132.94;5077344;28;19934;-71
2021/09/05 08:09:56;;;;;;;;;;;;;;;20.79;61.29;100137.81;5077342;28;20294;-71
2021/09/05 08:12:25;;;;;;;;;;;;;;;20.91;60.78;100137.38;5077583;28;19970;-71
2021/09/05 08:14:53;;;;;;;;;;;;;;;20.97;60.49;100142.34;5077179;28;19931;-72
2021/09/05 08:17:22;;;;;;;;;;;;;;;20.91;59.95;100137.38;5077226;28;19931;-72
2021/09/05 08:19:52;;;;;;;;;;;;;;;20.95;60.20;100141.56;5076705;28;19924;-73
2021/09/05 08:22:21;;;;;;;;;;;;;;;21.05;59.76;100148.16;5076809;28;19924;-72
2021/09/05 08:24:49;;;;;;;;;;;;;;;21.14;59.56;100146.97;5064184;28;20328;-71
2021/09/05 08:27:19;;;;;;;;;;;;;;;21.25;59.10;100143.09;5097474;28;20327;-71
2021/09/05 08:29:48;;;;;;;;;;;;;;;21.36;58.71;100150.47;5097143;28;19924;-71
2021/09/05 08:32:17;;;;;;;;;;;;;;;21.50;59.03;100147.38;5097352;28;20405;-71
2021/09/05 08:34:45;;;;;;;;;;;;;;;21.55;58.20;100150.63;5096981;28;19932;-71
2021/09/05 08:37:14;;;;;;;;;;;;;;;21.57;58.10;100160.03;5097410;28;19959;-71
2021/09/05 08:39:43;;;;;;;;;;;;;;;21.72;58.08;100154.28;5097111;28;19924;-71
2021/09/05 08:42:11;;;;;;;;;;;;;;;21.92;58.28;100156.13;5096860;28;20382;-71
2021/09/05 08:44:41;;;;;;;;;;;;;;;22.02;57.21;100160.91;5096924;28;19924;-71
2021/09/05 08:47:11;;;;;;;;;;;;;;;22.01;56.65;100158.34;5097082;28;20023;-72
2021/09/05 08:49:42;;;;;;;;;;;;;;;22.13;56.17;100151.81;5096839;28;20381;-72
2021/09/05 08:52:11;;;;;;;;;;;;;;;22.34;56.25;100154.41;5096795;28;19930;-73
2021/09/05 08:54:39;;;;;;;;;;;;;;;22.54;56.10;100146.63;5096478;28;19930;-73
2021/09/05 08:57:08;;;;;;;;;;;;;;;22.68;55.17;100154.72;5078626;28;19928;-72
2021/09/05 08:59:37;;;;;;;;;;;;;;;22.81;54.88;100149.00;5096604;28;19928;-72
2021/09/05 09:02:08;;;;;;;;;;;;;;;22.86;53.98;100147.03;5096611;28;19928;-72
2021/09/05 09:04:37;;;;;;;;;;;;;;;22.75;53.38;100144.06;5096729;28;19931;-72
2021/09/05 09:07:08;;;;;;;;;;;;;;;22.77;53.52;100147.44;5096741;28;20423;-72
2021/09/05 09:09:37;;;;;;;;;;;;;;;23.00;54.88;100139.47;5096387;28;20400;-73
2021/09/05 09:12:06;;;;;;;;;;;;;;;23.13;54.04;100143.22;5096380;28;19967;-73
2021/09/05 09:14:42;;;;;;;;;;;;;;;23.27;53.03;100149.47;5096301;28;19969;-72
2021/09/05 09:17:14;;;;;;;;;;;;;;;23.34;52.51;100150.06;5096310;28;19931;-73
2021/09/05 09:19:44;;;;;;;;;;;;;;;23.32;51.52;100146.69;5096242;28;19986;-73
2021/09/05 09:22:16;;;;;;;;;;;;;;;23.34;51.08;100145.72;5096211;28;19931;-73
2021/09/05 09:24:46;;;;;;;;;;;;;;;23.44;51.10;100146.16;5096229;28;19924;-72
2021/09/05 09:27:15;;;;;;;;;;;;;;;23.58;51.76;100154.19;5096408;28;20331;-72
2021/09/05 09:29:44;;;;;;;;;;;;;;;23.75;51.47;100149.03;5096031;28;20023;-71
2021/09/05 09:32:19;;;;;;;;;;;;;;;23.92;50.65;100149.06;5096077;28;19970;-71
2021/09/05 09:34:48;;;;;;;;;;;;;;;24.05;50.54;100148.47;5095967;28;19924;-72
2021/09/05 09:37:17;;;;;;;;;;;;;;;24.18;50.40;100150.47;5095862;28;20404;-72
2021/09/05 09:39:47;;;;;;;;;;;;;;;24.27;50.38;100143.94;5092081;28;19924;-72
2021/09/05 09:42:26;;;;;;;;;;;;;;;24.25;49.57;100146.63;5095572;28;19969;-72
2021/09/05 09:44:55;;;;;;;;;;;;;;;24.20;49.57;100142.56;5095481;28;19931;-72
2021/09/05 09:47:26;;;;;;;;;;;;;;;24.25;49.16;100146.63;5095490;28;19930;-72
2021/09/05 09:49:54;;;;;;;;;;;;;;;24.25;48.78;100143.19;5095770;28;19931;-73
2021/09/05 09:52:24;;;;;;;;;;;;;;;24.28;49.21;100140.44;5095383;28;20390;-72
2021/09/05 09:54:53;;;;;;;;;;;;;;;24.30;48.38;100135.97;5095104;28;19924;-72
2021/09/05 09:57:21;;;;;;;;;;;;;;;24.39;48.63;100138.13;5094934;28;19924;-72
2021/09/05 09:59:51;;;;;;;;;;;;;;;24.41;47.90;100131.91;5095374;28;19928;-72
2021/09/05 10:02:20;;;;;;;;;;;;;;;24.45;48.11;100138.66;5095584;28;19928;-73
2021/09/05 10:04:51;;;;;;;;;;;;;;;24.52;47.63;100139.19;5095345;28;20397;-73
2021/09/05 10:07:21;;;;;;;;;;;;;;;24.58;47.69;100133.66;5095327;28;20014;-73
2021/09/05 10:09:51;;;;;;;;;;;;;;;24.57;47.50;100137.22;5111082;28;19924;-73
2021/09/05 10:12:20;;;;;;;;;;;;;;;24.46;47.31;100135.13;5095508;28;20026;-73
2021/09/05 10:14:51;;;;;;;;;;;;;;;24.24;47.89;100138.88;5095525;28;20412;-73
2021/09/05 10:17:20;;;;;;;;;;;;;;;24.27;47.36;100138.72;5095143;28;19977;-72
2021/09/05 10:19:51;;;;;;;;;;;;;;;24.20;47.65;100137.34;5095109;28;19932;-73
2021/09/05 10:22:23;;;;;;;;;;;;;;;24.11;46.76;100138.66;5095015;28;19970;-72
2021/09/05 10:24:52;;;;;;;;;;;;;;;24.16;46.33;100141.03;5094983;28;20017;-73
2021/09/05 10:27:29;;;;;;;;;;;;;;;24.38;47.22;100131.19;5094945;28;19932;-73
2021/09/05 10:30:09;;;;;;;;;;;;;;;24.60;47.22;100132.66;5094933;28;19969;-73
2021/09/05 10:32:48;;;;;;;;;;;;;;;24.84;46.47;100129.72;5095519;28;20031;-73
2021/09/05 10:35:28;;;;;;;;;;;;;;;25.02;45.74;100129.63;5094836;28;19924;-73
2021/09/05 10:38:20;;;;;;;;;;;;;;;25.09;45.44;100131.00;5094876;28;19974;-73
2021/09/05 10:40:52;;;;;;;;;;;;;;;25.12;45.65;100130.81;5092360;28;19928;-72
2021/09/05 10:43:21;;;;;;;;;;;;;;;25.06;45.21;100131.16;5094792;28;19931;-73
2021/09/05 10:45:50;;;;;;;;;;;;;;;25.14;45.17;100129.00;5087990;28;19928;-75
2021/09/05 10:48:30;;;;;;;;;;;;;;;25.29;45.41;100130.75;5094375;28;20022;-72
2021/09/05 10:51:02;;;;;;;;;;;;;;;25.44;45.27;100125.63;5088393;28;19977;-74
2021/09/05 10:53:34;;;;;;;;;;;;;;;25.53;44.65;100128.63;5092365;28;20266;-72
2021/09/05 10:56:06;;;;;;;;;;;;;;;25.50;45.42;100131.41;5091503;28;19931;-72
2021/09/05 10:58:35;;;;;;;;;;;;;;;25.75;46.43;100128.28;5090609;28;19930;-74
2021/09/05 11:01:05;;;;;;;;;;;;;;;26.01;45.45;100126.81;5094313;28;19955;-70
2021/09/05 11:03:33;;;;;;;;;;;;;;;25.73;44.25;100124.91;5091903;28;20389;-70
2021/09/05 11:06:13;;;;;;;;;;;;;;;25.70;45.58;100125.06;5090840;28;19924;-73
2021/09/05 11:08:41;;;;;;;;;;;;;;;25.98;45.39;100121.75;5092117;28;19924;-73
2021/09/05 11:11:12;;;;;;;;;;;;;;;26.13;44.04;100124.34;5089969;28;19924;-75
2021/09/05 11:13:49;;;;;;;;;;;;;;;26.20;42.49;100119.63;5083894;28;19970;-75
2021/09/05 11:16:20;;;;;;;;;;;;;;;26.40;42.76;100109.69;5093857;28;19928;-74
2021/09/05 11:18:50;;;;;;;;;;;;;;;26.60;41.89;100118.97;5075845;28;19931;-75
2021/09/05 11:21:24;;;;;;;;;;;;;;;26.56;42.43;100113.06;5094304;28;20035;-75
2021/09/05 11:23:55;;;;;;;;;;;;;;;26.68;43.54;100108.06;5094038;28;19928;-75
2021/09/05 11:26:31;;;;;;;;;;;;;;;26.81;42.06;100109.00;5093753;28;20385;-75
2021/09/05 11:28:59;;;;;;;;;;;;;;;26.84;41.08;100108.84;5094144;28;19928;-74
2021/09/05 11:31:45;;;;;;;;;;;;;;;26.74;41.00;100108.50;5110246;28;20056;-75
2021/09/05 11:34:14;;;;;;;;;;;;;;;26.80;41.38;100113.44;5106247;28;19955;-75
2021/09/05 11:36:44;;;;;;;;;;;;;;;26.90;40.71;100108.47;5091338;28;19963;-72
2021/09/05 11:39:13;;;;;;;;;;;;;;;26.87;40.48;100108.66;5092936;28;19924;-74
2021/09/05 11:41:44;;;;;;;;;;;;;;;26.86;41.05;100109.59;5092621;28;19928;-73
2021/09/05 11:44:13;;;;;;;;;;;;;;;26.67;41.23;100103.72;5091872;28;19924;-74
2021/09/05 11:46:45;;;;;;;;;;;;;;;26.75;39.56;100105.00;5093809;28;19924;-72
2021/09/05 11:49:14;;;;;;;;;;;;;;;26.63;39.40;100109.16;5091922;28;20015;-73
2021/09/05 11:51:56;;;;;;;;;;;;;;;26.72;39.27;100109.53;5089271;28;19973;-73
2021/09/05 11:54:25;;;;;;;;;;;;;;;26.91;38.65;100099.66;5081964;28;19931;-74
2021/09/05 11:56:56;;;;;;;;;;;;;;;27.08;38.56;100102.09;5074298;28;20019;-73
2021/09/05 11:59:25;;;;;;;;;;;;;;;27.28;38.05;100104.34;5091956;28;20015;-73
2021/09/05 12:01:55;;;;;;;;;;;;;;;27.38;37.41;100108.06;5089696;28;19924;-74
2021/09/05 12:04:24;;;;;;;;;;;;;;;27.56;39.26;100099.06;5088823;28;19924;-74
2021/09/05 12:06:55;;;;;;;;;;;;;;;27.59;39.42;100103.25;5096784;28;19930;-74
2021/09/05 12:09:27;;;;;;;;;;;;;;;27.72;38.24;100110.25;5087037;28;19932;-74
2021/09/05 12:12:02;;;;;;;;;;;;;;;27.68;36.47;100108.75;5093522;28;19928;-73
2021/09/05 12:14:35;;;;;;;;;;;;;;;27.60;36.66;100104.94;5093489;28;19930;-74
2021/09/05 12:17:16;;;;;;;;;;;;;;;27.67;37.43;100114.94;5093772;28;19924;-74
2021/09/05 12:19:55;;;;;;;;;;;;;;;27.75;38.81;100104.81;5089457;28;19932;-74
2021/09/05 12:22:25;;;;;;;;;;;;;;;27.90;38.56;100103.81;5099280;28;19930;-75
2021/09/05 12:24:56;;;;;;;;;;;;;;;27.76;37.64;100095.97;5089071;28;19947;-74
2021/09/05 12:27:27;;;;;;;;;;;;;;;27.77;37.77;100095.03;5095003;28;19931;-74
2021/09/05 12:29:56;;;;;;;;;;;;;;;27.38;37.95;100092.34;5077786;28;19924;-73
2021/09/05 12:32:26;;;;;;;;;;;;;;;27.35;38.51;100103.00;5097221;28;19924;-73
2021/09/05 12:34:59;;;;;;;;;;;;;;;27.15;39.62;100095.53;5093955;28;20305;-75
2021/09/05 12:37:29;;;;;;;;;;;;;;;26.95;39.46;100098.53;5096921;28;20104;-75
2021/09/05 12:40:13;;;;;;;;;;;;;;;26.74;40.00;100098.03;5096596;28;19977;-75
2021/09/05 12:42:48;;;;;;;;;;;;;;;26.56;39.96;100105.22;5096969;28;19924;-75
2021/09/05 12:45:17;;;;;;;;;;;;;;;26.43;40.46;100103.41;5078804;28;19924;-74
2021/09/05 12:47:46;;;;;;;;;;;;;;;26.26;40.71;100101.78;5096900;28;19924;-75
2021/09/05 12:50:20;;;;;;;;;;;;;;;26.07;41.62;100106.38;5096623;28;19932;-75
2021/09/05 12:52:49;;;;;;;;;;;;;;;25.86;44.03;100103.22;5096774;28;19928;-75
2021/09/05 12:55:20;;;;;;;;;;;;;;;25.67;45.13;100109.56;5078630;28;20370;-75
2021/09/05 12:57:51;;;;;;;;;;;;;;;25.47;45.13;100108.03;5096739;28;20485;-75
2021/09/05 13:00:20;;;;;;;;;;;;;;;25.39;45.17;100106.75;5096671;28;19947;-75
2021/09/05 13:02:50;;;;;;;;;;;;;;;25.33;44.56;100107.06;5096727;28;20022;-75
2021/09/05 13:05:20;;;;;;;;;;;;;;;25.25;44.99;100104.88;5112402;28;19928;-75
2021/09/05 13:07:48;;;;;;;;;;;;;;;25.28;45.12;100110.78;5096799;28;20327;-75